Erin, New York
Current Conditions -  °F | °C
As of 11:53 AM on Saturday 25 Oct 2014 (Local Time) from KELM Reporting Station
Clear Clear  
Wind Chill: 61°   Ceiling: Unl
Heat Index: 61°   Visibility: 10mi
Dew Point: 45°   Wind: 12mph
Humidity: 56%   Direction: 230°SW
Pressure: 29.77"   Gusts: NA
Location:  42.19°N, 76.67°W
Report Text: KELM 251553Z 23010KT 10SM CLR 16/07 A2977 RMK AO2 SLP081 T01610072
Loading
Personal Weather Stations






























Interactive Weather Map
Tropical Storm Tracking
New forecast layout! Learn more

10-Day Weather Forecast

Advertisements
Track Severe Weather on mobile